sensor_id;sensor_type;location;lat;lon;timestamp;temperature;humidity
3648;DHT22;1840;48.892;15.312;2024-01-25T00:00:22;4.20;95.80
3648;DHT22;1840;48.892;15.312;2024-01-25T00:02:51;4.10;95.80
3648;DHT22;1840;48.892;15.312;2024-01-25T00:05:22;4.20;95.80
3648;DHT22;1840;48.892;15.312;2024-01-25T00:07:52;4.20;95.70
3648;DHT22;1840;48.892;15.312;2024-01-25T00:10:21;4.20;95.70
3648;DHT22;1840;48.892;15.312;2024-01-25T00:12:50;4.10;95.80
3648;DHT22;1840;48.892;15.312;2024-01-25T00:15:18;4.10;95.90
3648;DHT22;1840;48.892;15.312;2024-01-25T00:17:47;4.10;95.90
3648;DHT22;1840;48.892;15.312;2024-01-25T00:20:15;4.10;95.90
3648;DHT22;1840;48.892;15.312;2024-01-25T00:22:46;4.10;95.80
3648;DHT22;1840;48.892;15.312;2024-01-25T00:25:14;4.20;95.80
3648;DHT22;1840;48.892;15.312;2024-01-25T00:27:43;4.20;95.80
3648;DHT22;1840;48.892;15.312;2024-01-25T00:30:17;4.10;95.70
3648;DHT22;1840;48.892;15.312;2024-01-25T00:32:45;4.20;95.80
3648;DHT22;1840;48.892;15.312;2024-01-25T00:35:15;4.20;95.60
3648;DHT22;1840;48.892;15.312;2024-01-25T00:37:46;4.30;95.60
3648;DHT22;1840;48.892;15.312;2024-01-25T00:40:15;4.30;95.50
3648;DHT22;1840;48.892;15.312;2024-01-25T00:42:45;4.30;95.50
3648;DHT22;1840;48.892;15.312;2024-01-25T00:45:17;4.30;95.60
3648;DHT22;1840;48.892;15.312;2024-01-25T00:47:46;4.20;95.60
3648;DHT22;1840;48.892;15.312;2024-01-25T00:50:15;4.20;95.60
3648;DHT22;1840;48.892;15.312;2024-01-25T00:52:48;4.10;95.60
3648;DHT22;1840;48.892;15.312;2024-01-25T00:55:18;4.20;95.40
3648;DHT22;1840;48.892;15.312;2024-01-25T00:57:47;4.20;95.50
3648;DHT22;1840;48.892;15.312;2024-01-25T01:00:20;4.20;95.50
3648;DHT22;1840;48.892;15.312;2024-01-25T01:02:49;4.10;95.50
3648;DHT22;1840;48.892;15.312;2024-01-25T01:05:18;4.10;95.70
3648;DHT22;1840;48.892;15.312;2024-01-25T01:07:49;4.20;95.50
3648;DHT22;1840;48.892;15.312;2024-01-25T01:10:18;4.10;95.50
3648;DHT22;1840;48.892;15.312;2024-01-25T01:12:47;4.10;95.40
3648;DHT22;1840;48.892;15.312;2024-01-25T01:15:15;4.20;95.50
3648;DHT22;1840;48.892;15.312;2024-01-25T01:17:45;4.20;95.50
3648;DHT22;1840;48.892;15.312;2024-01-25T01:20:14;4.20;95.40
3648;DHT22;1840;48.892;15.312;2024-01-25T01:22:43;4.20;95.50
3648;DHT22;1840;48.892;15.312;2024-01-25T01:25:12;4.10;95.40
3648;DHT22;1840;48.892;15.312;2024-01-25T01:27:41;4.10;95.60
3648;DHT22;1840;48.892;15.312;2024-01-25T01:30:11;4.10;95.50
3648;DHT22;1840;48.892;15.312;2024-01-25T01:32:41;4.20;95.50
3648;DHT22;1840;48.892;15.312;2024-01-25T01:35:11;4.10;95.50
3648;DHT22;1840;48.892;15.312;2024-01-25T01:37:41;4.10;95.50
3648;DHT22;1840;48.892;15.312;2024-01-25T01:40:12;4.00;95.60
3648;DHT22;1840;48.892;15.312;2024-01-25T01:42:40;4.00;95.50
3648;DHT22;1840;48.892;15.312;2024-01-25T01:45:11;4.10;95.40
3648;DHT22;1840;48.892;15.312;2024-01-25T01:47:40;4.10;95.40
3648;DHT22;1840;48.892;15.312;2024-01-25T01:50:09;4.20;95.40
3648;DHT22;1840;48.892;15.312;2024-01-25T01:52:41;4.10;95.30
3648;DHT22;1840;48.892;15.312;2024-01-25T01:55:12;4.20;95.20
3648;DHT22;1840;48.892;15.312;2024-01-25T01:57:41;4.20;95.10
3648;DHT22;1840;48.892;15.312;2024-01-25T02:00:10;4.10;95.40
3648;DHT22;1840;48.892;15.312;2024-01-25T02:02:39;4.10;95.30
3648;DHT22;1840;48.892;15.312;2024-01-25T02:05:08;4.00;95.40
3648;DHT22;1840;48.892;15.312;2024-01-25T02:07:37;4.10;95.20
3648;DHT22;1840;48.892;15.312;2024-01-25T02:10:08;4.10;95.30
3648;DHT22;1840;48.892;15.312;2024-01-25T02:12:38;4.00;95.20
3648;DHT22;1840;48.892;15.312;2024-01-25T02:15:07;4.10;95.10
3648;DHT22;1840;48.892;15.312;2024-01-25T02:17:36;4.10;95.30
3648;DHT22;1840;48.892;15.312;2024-01-25T02:20:07;4.00;95.20
3648;DHT22;1840;48.892;15.312;2024-01-25T02:22:37;4.00;95.20
3648;DHT22;1840;48.892;15.312;2024-01-25T02:25:06;4.10;95.00
3648;DHT22;1840;48.892;15.312;2024-01-25T02:27:35;4.00;94.90
3648;DHT22;1840;48.892;15.312;2024-01-25T02:30:07;4.00;95.00
3648;DHT22;1840;48.892;15.312;2024-01-25T02:32:35;4.00;94.90
3648;DHT22;1840;48.892;15.312;2024-01-25T02:35:04;4.00;94.90
3648;DHT22;1840;48.892;15.312;2024-01-25T02:37:33;4.00;94.80
3648;DHT22;1840;48.892;15.312;2024-01-25T02:40:06;4.00;94.90
3648;DHT22;1840;48.892;15.312;2024-01-25T02:42:35;4.00;94.70
3648;DHT22;1840;48.892;15.312;2024-01-25T02:45:05;4.00;94.70
3648;DHT22;1840;48.892;15.312;2024-01-25T02:47:34;4.00;94.80
3648;DHT22;1840;48.892;15.312;2024-01-25T02:50:05;4.00;94.70
3648;DHT22;1840;48.892;15.312;2024-01-25T02:52:33;4.00;94.50
3648;DHT22;1840;48.892;15.312;2024-01-25T02:55:02;4.00;94.70
3648;DHT22;1840;48.892;15.312;2024-01-25T02:57:32;4.00;94.60
3648;DHT22;1840;48.892;15.312;2024-01-25T03:00:03;3.90;94.50
3648;DHT22;1840;48.892;15.312;2024-01-25T03:02:32;4.00;94.70
3648;DHT22;1840;48.892;15.312;2024-01-25T03:05:00;3.90;94.60
3648;DHT22;1840;48.892;15.312;2024-01-25T03:07:30;3.90;94.60
3648;DHT22;1840;48.892;15.312;2024-01-25T03:09:59;3.90;94.40
3648;DHT22;1840;48.892;15.312;2024-01-25T03:12:27;3.90;94.50
3648;DHT22;1840;48.892;15.312;2024-01-25T03:14:57;3.80;94.40
3648;DHT22;1840;48.892;15.312;2024-01-25T03:17:25;3.70;94.60
3648;DHT22;1840;48.892;15.312;2024-01-25T03:19:54;3.70;94.70
3648;DHT22;1840;48.892;15.312;2024-01-25T03:22:23;3.80;94.80
3648;DHT22;1840;48.892;15.312;2024-01-25T03:24:52;3.80;94.40
3648;DHT22;1840;48.892;15.312;2024-01-25T03:27:21;3.80;94.60
3648;DHT22;1840;48.892;15.312;2024-01-25T03:29:49;3.90;94.60
3648;DHT22;1840;48.892;15.312;2024-01-25T03:32:19;4.00;94.50
3648;DHT22;1840;48.892;15.312;2024-01-25T03:34:48;3.90;94.50
3648;DHT22;1840;48.892;15.312;2024-01-25T03:37:16;3.90;94.40
3648;DHT22;1840;48.892;15.312;2024-01-25T03:39:45;3.80;94.30
3648;DHT22;1840;48.892;15.312;2024-01-25T03:42:13;3.90;94.50
3648;DHT22;1840;48.892;15.312;2024-01-25T03:44:42;3.90;94.10
3648;DHT22;1840;48.892;15.312;2024-01-25T03:47:14;3.90;94.20
3648;DHT22;1840;48.892;15.312;2024-01-25T03:49:44;3.80;94.30
3648;DHT22;1840;48.892;15.312;2024-01-25T03:52:13;3.80;94.50
3648;DHT22;1840;48.892;15.312;2024-01-25T03:54:41;3.70;94.60
3648;DHT22;1840;48.892;15.312;2024-01-25T03:57:10;3.70;94.50
3648;DHT22;1840;48.892;15.312;2024-01-25T03:59:39;3.80;94.40
3648;DHT22;1840;48.892;15.312;2024-01-25T04:02:07;3.90;94.50
3648;DHT22;1840;48.892;15.312;2024-01-25T04:04:37;3.80;94.50
3648;DHT22;1840;48.892;15.312;2024-01-25T04:07:07;3.80;94.80
3648;DHT22;1840;48.892;15.312;2024-01-25T04:09:35;3.70;94.70
3648;DHT22;1840;48.892;15.312;2024-01-25T04:12:05;3.70;94.80
3648;DHT22;1840;48.892;15.312;2024-01-25T04:14:33;3.80;94.80
3648;DHT22;1840;48.892;15.312;2024-01-25T04:17:02;3.80;94.80
3648;DHT22;1840;48.892;15.312;2024-01-25T04:19:30;3.70;94.90
3648;DHT22;1840;48.892;15.312;2024-01-25T04:21:59;3.70;94.90
3648;DHT22;1840;48.892;15.312;2024-01-25T04:24:29;3.60;95.00
3648;DHT22;1840;48.892;15.312;2024-01-25T04:26:57;3.70;94.80
3648;DHT22;1840;48.892;15.312;2024-01-25T04:29:26;3.60;94.80
3648;DHT22;1840;48.892;15.312;2024-01-25T04:31:54;3.60;94.50
3648;DHT22;1840;48.892;15.312;2024-01-25T04:34:23;3.70;94.60
3648;DHT22;1840;48.892;15.312;2024-01-25T04:36:52;3.60;94.70
3648;DHT22;1840;48.892;15.312;2024-01-25T04:39:21;3.60;94.80
3648;DHT22;1840;48.892;15.312;2024-01-25T04:41:51;3.50;94.80
3648;DHT22;1840;48.892;15.312;2024-01-25T04:44:19;3.50;95.00
3648;DHT22;1840;48.892;15.312;2024-01-25T04:46:48;3.50;94.80
3648;DHT22;1840;48.892;15.312;2024-01-25T04:49:16;3.50;95.00
3648;DHT22;1840;48.892;15.312;2024-01-25T04:51:45;3.50;95.00
3648;DHT22;1840;48.892;15.312;2024-01-25T04:54:13;3.50;95.10
3648;DHT22;1840;48.892;15.312;2024-01-25T04:56:44;3.40;95.00
3648;DHT22;1840;48.892;15.312;2024-01-25T04:59:13;3.40;95.30
3648;DHT22;1840;48.892;15.312;2024-01-25T05:01:42;3.40;95.30
3648;DHT22;1840;48.892;15.312;2024-01-25T05:04:11;3.40;95.30
3648;DHT22;1840;48.892;15.312;2024-01-25T05:06:40;3.40;95.20
3648;DHT22;1840;48.892;15.312;2024-01-25T05:09:08;3.40;95.50
3648;DHT22;1840;48.892;15.312;2024-01-25T05:11:38;3.40;95.50
3648;DHT22;1840;48.892;15.312;2024-01-25T05:14:08;3.20;95.70
3648;DHT22;1840;48.892;15.312;2024-01-25T05:16:37;3.20;95.70
3648;DHT22;1840;48.892;15.312;2024-01-25T05:19:06;3.30;95.60
3648;DHT22;1840;48.892;15.312;2024-01-25T05:21:35;3.30;95.60
3648;DHT22;1840;48.892;15.312;2024-01-25T05:24:04;3.20;95.60
3648;DHT22;1840;48.892;15.312;2024-01-25T05:26:32;3.20;95.80
3648;DHT22;1840;48.892;15.312;2024-01-25T05:29:01;3.30;95.70
3648;DHT22;1840;48.892;15.312;2024-01-25T05:31:29;3.30;95.80
3648;DHT22;1840;48.892;15.312;2024-01-25T05:33:59;3.30;95.60
3648;DHT22;1840;48.892;15.312;2024-01-25T05:36:28;3.20;95.80
3648;DHT22;1840;48.892;15.312;2024-01-25T05:38:56;3.20;95.80
3648;DHT22;1840;48.892;15.312;2024-01-25T05:41:25;3.20;95.70
3648;DHT22;1840;48.892;15.312;2024-01-25T05:43:54;3.20;95.80
3648;DHT22;1840;48.892;15.312;2024-01-25T05:46:22;3.20;95.70
3648;DHT22;1840;48.892;15.312;2024-01-25T05:48:51;3.20;95.80
3648;DHT22;1840;48.892;15.312;2024-01-25T05:51:21;3.20;95.80
3648;DHT22;1840;48.892;15.312;2024-01-25T05:53:50;3.20;95.90
3648;DHT22;1840;48.892;15.312;2024-01-25T05:56:18;3.20;96.20
3648;DHT22;1840;48.892;15.312;2024-01-25T05:58:46;3.20;95.90
3648;DHT22;1840;48.892;15.312;2024-01-25T06:01:15;3.40;95.90
3648;DHT22;1840;48.892;15.312;2024-01-25T06:03:43;3.40;95.80
3648;DHT22;1840;48.892;15.312;2024-01-25T06:06:12;3.20;96.10
3648;DHT22;1840;48.892;15.312;2024-01-25T06:08:42;3.20;96.20
3648;DHT22;1840;48.892;15.312;2024-01-25T06:11:21;3.10;96.10
3648;DHT22;1840;48.892;15.312;2024-01-25T06:13:50;3.10;96.20
3648;DHT22;1840;48.892;15.312;2024-01-25T06:16:18;3.10;96.20
3648;DHT22;1840;48.892;15.312;2024-01-25T06:18:47;3.10;96.20
3648;DHT22;1840;48.892;15.312;2024-01-25T06:21:23;3.10;96.20
3648;DHT22;1840;48.892;15.312;2024-01-25T06:23:53;3.00;96.40
3648;DHT22;1840;48.892;15.312;2024-01-25T06:26:21;3.00;96.50
3648;DHT22;1840;48.892;15.312;2024-01-25T06:28:50;3.00;96.40
3648;DHT22;1840;48.892;15.312;2024-01-25T06:31:18;3.10;96.30
3648;DHT22;1840;48.892;15.312;2024-01-25T06:33:47;3.10;96.10
3648;DHT22;1840;48.892;15.312;2024-01-25T06:36:18;3.20;96.10
3648;DHT22;1840;48.892;15.312;2024-01-25T06:38:46;3.10;96.20
3648;DHT22;1840;48.892;15.312;2024-01-25T06:41:16;3.00;96.10
3648;DHT22;1840;48.892;15.312;2024-01-25T06:43:47;3.00;96.20
3648;DHT22;1840;48.892;15.312;2024-01-25T06:46:17;3.00;96.30
3648;DHT22;1840;48.892;15.312;2024-01-25T06:48:45;3.00;96.30
3648;DHT22;1840;48.892;15.312;2024-01-25T06:51:14;2.90;96.30
3648;DHT22;1840;48.892;15.312;2024-01-25T06:53:42;2.90;96.30
3648;DHT22;1840;48.892;15.312;2024-01-25T06:56:11;3.10;96.40
3648;DHT22;1840;48.892;15.312;2024-01-25T06:58:41;3.10;96.30
3648;DHT22;1840;48.892;15.312;2024-01-25T07:01:12;3.10;96.30
3648;DHT22;1840;48.892;15.312;2024-01-25T07:03:42;3.30;96.10
3648;DHT22;1840;48.892;15.312;2024-01-25T07:06:14;3.30;96.10
3648;DHT22;1840;48.892;15.312;2024-01-25T07:08:43;3.30;96.20
3648;DHT22;1840;48.892;15.312;2024-01-25T07:11:11;3.20;96.40
3648;DHT22;1840;48.892;15.312;2024-01-25T07:13:42;3.20;96.30
3648;DHT22;1840;48.892;15.312;2024-01-25T07:16:13;3.30;96.30
3648;DHT22;1840;48.892;15.312;2024-01-25T07:18:42;3.20;96.40
3648;DHT22;1840;48.892;15.312;2024-01-25T07:21:11;3.10;96.50
3648;DHT22;1840;48.892;15.312;2024-01-25T07:23:40;3.10;96.40
3648;DHT22;1840;48.892;15.312;2024-01-25T07:26:09;3.20;96.30
3648;DHT22;1840;48.892;15.312;2024-01-25T07:28:46;3.10;96.40
3648;DHT22;1840;48.892;15.312;2024-01-25T07:31:20;3.00;96.30
3648;DHT22;1840;48.892;15.312;2024-01-25T07:33:48;3.00;96.20
3648;DHT22;1840;48.892;15.312;2024-01-25T07:36:17;3.00;96.10
3648;DHT22;1840;48.892;15.312;2024-01-25T07:38:46;3.00;96.20
3648;DHT22;1840;48.892;15.312;2024-01-25T07:41:18;3.00;96.40
3648;DHT22;1840;48.892;15.312;2024-01-25T07:43:48;3.10;96.40
3648;DHT22;1840;48.892;15.312;2024-01-25T07:46:17;3.10;96.30
3648;DHT22;1840;48.892;15.312;2024-01-25T07:48:48;3.00;96.50
3648;DHT22;1840;48.892;15.312;2024-01-25T07:51:16;3.00;96.60
3648;DHT22;1840;48.892;15.312;2024-01-25T07:53:46;3.10;96.50
3648;DHT22;1840;48.892;15.312;2024-01-25T07:56:14;3.10;96.40
3648;DHT22;1840;48.892;15.312;2024-01-25T07:58:43;3.20;96.30
3648;DHT22;1840;48.892;15.312;2024-01-25T08:01:13;3.10;96.20
3648;DHT22;1840;48.892;15.312;2024-01-25T08:03:49;3.20;96.40
3648;DHT22;1840;48.892;15.312;2024-01-25T08:06:18;3.20;96.20
3648;DHT22;1840;48.892;15.312;2024-01-25T08:08:47;3.30;96.10
3648;DHT22;1840;48.892;15.312;2024-01-25T08:11:15;3.30;96.10
3648;DHT22;1840;48.892;15.312;2024-01-25T08:13:46;3.20;96.10
3648;DHT22;1840;48.892;15.312;2024-01-25T08:16:19;3.10;96.00
3648;DHT22;1840;48.892;15.312;2024-01-25T08:18:48;3.20;96.20
3648;DHT22;1840;48.892;15.312;2024-01-25T08:21:18;3.20;96.10
3648;DHT22;1840;48.892;15.312;2024-01-25T08:23:49;3.30;96.10
3648;DHT22;1840;48.892;15.312;2024-01-25T08:26:18;3.40;96.00
3648;DHT22;1840;48.892;15.312;2024-01-25T08:28:47;3.60;95.90
3648;DHT22;1840;48.892;15.312;2024-01-25T08:31:17;3.50;95.60
3648;DHT22;1840;48.892;15.312;2024-01-25T08:33:46;3.30;95.90
3648;DHT22;1840;48.892;15.312;2024-01-25T08:36:17;3.30;95.90
3648;DHT22;1840;48.892;15.312;2024-01-25T08:38:46;3.40;95.70
3648;DHT22;1840;48.892;15.312;2024-01-25T08:41:15;3.40;95.70
3648;DHT22;1840;48.892;15.312;2024-01-25T08:43:44;3.40;95.40
3648;DHT22;1840;48.892;15.312;2024-01-25T08:46:14;3.30;95.20
3648;DHT22;1840;48.892;15.312;2024-01-25T08:48:45;3.30;95.30
3648;DHT22;1840;48.892;15.312;2024-01-25T08:51:14;3.30;95.20
3648;DHT22;1840;48.892;15.312;2024-01-25T08:53:42;3.30;95.10
3648;DHT22;1840;48.892;15.312;2024-01-25T08:56:11;3.40;94.80
3648;DHT22;1840;48.892;15.312;2024-01-25T08:58:39;3.40;94.20
3648;DHT22;1840;48.892;15.312;2024-01-25T09:01:08;3.40;93.90
3648;DHT22;1840;48.892;15.312;2024-01-25T09:03:37;3.30;93.60
3648;DHT22;1840;48.892;15.312;2024-01-25T09:06:07;3.40;93.80
3648;DHT22;1840;48.892;15.312;2024-01-25T09:08:37;3.30;93.70
3648;DHT22;1840;48.892;15.312;2024-01-25T09:11:05;3.30;93.80
3648;DHT22;1840;48.892;15.312;2024-01-25T09:13:34;3.30;93.80
3648;DHT22;1840;48.892;15.312;2024-01-25T09:16:12;3.30;93.50
3648;DHT22;1840;48.892;15.312;2024-01-25T09:18:43;3.40;93.40
3648;DHT22;1840;48.892;15.312;2024-01-25T09:21:13;3.40;93.40
3648;DHT22;1840;48.892;15.312;2024-01-25T09:23:41;3.60;93.30
3648;DHT22;1840;48.892;15.312;2024-01-25T09:26:10;3.70;92.90
3648;DHT22;1840;48.892;15.312;2024-01-25T09:28:38;3.90;92.30
3648;DHT22;1840;48.892;15.312;2024-01-25T09:31:12;4.20;91.90
3648;DHT22;1840;48.892;15.312;2024-01-25T09:33:40;4.20;91.90
3648;DHT22;1840;48.892;15.312;2024-01-25T09:36:09;4.30;92.10
3648;DHT22;1840;48.892;15.312;2024-01-25T09:38:40;4.20;92.60
3648;DHT22;1840;48.892;15.312;2024-01-25T09:41:09;4.30;92.80
3648;DHT22;1840;48.892;15.312;2024-01-25T09:43:38;4.30;93.60
3648;DHT22;1840;48.892;15.312;2024-01-25T09:46:12;4.10;94.20
3648;DHT22;1840;48.892;15.312;2024-01-25T09:48:42;4.20;94.50
3648;DHT22;1840;48.892;15.312;2024-01-25T09:51:14;3.90;94.70
3648;DHT22;1840;48.892;15.312;2024-01-25T09:53:45;4.00;95.00
3648;DHT22;1840;48.892;15.312;2024-01-25T09:56:20;4.40;94.60
3648;DHT22;1840;48.892;15.312;2024-01-25T09:58:50;4.20;93.90
3648;DHT22;1840;48.892;15.312;2024-01-25T10:01:20;4.20;94.40
3648;DHT22;1840;48.892;15.312;2024-01-25T10:03:49;4.20;94.50
3648;DHT22;1840;48.892;15.312;2024-01-25T10:06:18;3.90;93.80
3648;DHT22;1840;48.892;15.312;2024-01-25T10:08:50;3.80;94.00
3648;DHT22;1840;48.892;15.312;2024-01-25T10:11:18;3.70;94.10
3648;DHT22;1840;48.892;15.312;2024-01-25T10:13:47;3.90;94.30
3648;DHT22;1840;48.892;15.312;2024-01-25T10:16:18;3.80;94.70
3648;DHT22;1840;48.892;15.312;2024-01-25T10:18:47;3.80;94.30
3648;DHT22;1840;48.892;15.312;2024-01-25T10:21:17;4.00;94.50
3648;DHT22;1840;48.892;15.312;2024-01-25T10:23:47;3.80;93.90
3648;DHT22;1840;48.892;15.312;2024-01-25T10:26:18;3.90;93.80
3648;DHT22;1840;48.892;15.312;2024-01-25T10:28:51;3.80;93.60
3648;DHT22;1840;48.892;15.312;2024-01-25T10:31:29;3.80;93.90
3648;DHT22;1840;48.892;15.312;2024-01-25T10:34:00;3.80;94.00
3648;DHT22;1840;48.892;15.312;2024-01-25T10:36:29;3.90;94.00
3648;DHT22;1840;48.892;15.312;2024-01-25T10:38:59;3.90;93.60
3648;DHT22;1840;48.892;15.312;2024-01-25T10:41:34;3.90;93.90
3648;DHT22;1840;48.892;15.312;2024-01-25T10:44:03;4.00;93.90
3648;DHT22;1840;48.892;15.312;2024-01-25T10:46:34;4.10;93.80
3648;DHT22;1840;48.892;15.312;2024-01-25T10:49:04;4.20;93.30
3648;DHT22;1840;48.892;15.312;2024-01-25T10:51:33;4.30;93.40
3648;DHT22;1840;48.892;15.312;2024-01-25T10:54:02;4.40;92.80
3648;DHT22;1840;48.892;15.312;2024-01-25T10:56:35;4.10;93.00
3648;DHT22;1840;48.892;15.312;2024-01-25T10:59:04;3.90;93.30
3648;DHT22;1840;48.892;15.312;2024-01-25T11:01:33;3.90;93.30
3648;DHT22;1840;48.892;15.312;2024-01-25T11:04:03;3.80;93.10
3648;DHT22;1840;48.892;15.312;2024-01-25T11:06:40;3.70;93.30
3648;DHT22;1840;48.892;15.312;2024-01-25T11:09:09;3.80;93.10
3648;DHT22;1840;48.892;15.312;2024-01-25T11:11:48;3.80;93.20
3648;DHT22;1840;48.892;15.312;2024-01-25T11:14:19;3.60;93.20
3648;DHT22;1840;48.892;15.312;2024-01-25T11:16:49;3.60;93.30
3648;DHT22;1840;48.892;15.312;2024-01-25T11:19:21;3.50;93.30
3648;DHT22;1840;48.892;15.312;2024-01-25T11:21:51;3.70;93.60
3648;DHT22;1840;48.892;15.312;2024-01-25T11:24:21;3.80;93.20
3648;DHT22;1840;48.892;15.312;2024-01-25T11:26:51;4.00;93.40
3648;DHT22;1840;48.892;15.312;2024-01-25T11:29:21;4.20;93.10
3648;DHT22;1840;48.892;15.312;2024-01-25T11:31:52;4.20;93.40
3648;DHT22;1840;48.892;15.312;2024-01-25T11:34:21;4.20;93.20
3648;DHT22;1840;48.892;15.312;2024-01-25T11:36:50;4.30;93.10
3648;DHT22;1840;48.892;15.312;2024-01-25T11:39:19;4.50;93.10
3648;DHT22;1840;48.892;15.312;2024-01-25T11:41:47;4.20;92.90
3648;DHT22;1840;48.892;15.312;2024-01-25T11:44:20;3.90;93.20
3648;DHT22;1840;48.892;15.312;2024-01-25T11:46:53;3.80;93.50
3648;DHT22;1840;48.892;15.312;2024-01-25T11:49:24;3.60;93.50
3648;DHT22;1840;48.892;15.312;2024-01-25T11:51:58;3.70;93.40
3648;DHT22;1840;48.892;15.312;2024-01-25T11:54:29;3.70;93.20
3648;DHT22;1840;48.892;15.312;2024-01-25T11:56:57;3.80;93.50
3648;DHT22;1840;48.892;15.312;2024-01-25T11:59:28;4.10;93.40
3648;DHT22;1840;48.892;15.312;2024-01-25T12:02:01;4.30;93.20
3648;DHT22;1840;48.892;15.312;2024-01-25T12:04:34;4.20;92.60
3648;DHT22;1840;48.892;15.312;2024-01-25T12:07:04;4.00;92.60
3648;DHT22;1840;48.892;15.312;2024-01-25T12:09:33;4.00;92.80
3648;DHT22;1840;48.892;15.312;2024-01-25T12:12:02;4.20;93.00
3648;DHT22;1840;48.892;15.312;2024-01-25T12:14:32;4.10;92.70
3648;DHT22;1840;48.892;15.312;2024-01-25T12:17:03;4.20;92.60
3648;DHT22;1840;48.892;15.312;2024-01-25T12:19:33;4.10;92.60
3648;DHT22;1840;48.892;15.312;2024-01-25T12:22:02;4.20;92.90
3648;DHT22;1840;48.892;15.312;2024-01-25T12:24:31;4.40;92.70
3648;DHT22;1840;48.892;15.312;2024-01-25T12:27:03;4.50;92.60
3648;DHT22;1840;48.892;15.312;2024-01-25T12:29:33;4.60;92.40
3648;DHT22;1840;48.892;15.312;2024-01-25T12:32:02;4.60;92.30
3648;DHT22;1840;48.892;15.312;2024-01-25T12:34:30;4.90;92.30
3648;DHT22;1840;48.892;15.312;2024-01-25T12:37:03;4.80;92.00
3648;DHT22;1840;48.892;15.312;2024-01-25T12:39:33;4.70;91.10
3648;DHT22;1840;48.892;15.312;2024-01-25T12:42:02;5.00;91.80
3648;DHT22;1840;48.892;15.312;2024-01-25T12:44:32;4.90;91.10
3648;DHT22;1840;48.892;15.312;2024-01-25T12:47:03;4.90;91.20
3648;DHT22;1840;48.892;15.312;2024-01-25T12:49:35;4.80;91.70
3648;DHT22;1840;48.892;15.312;2024-01-25T12:52:06;4.80;91.50
3648;DHT22;1840;48.892;15.312;2024-01-25T12:54:36;4.80;91.40
3648;DHT22;1840;48.892;15.312;2024-01-25T12:57:04;4.70;91.60
3648;DHT22;1840;48.892;15.312;2024-01-25T12:59:35;4.60;91.40
3648;DHT22;1840;48.892;15.312;2024-01-25T13:02:05;4.60;91.30
3648;DHT22;1840;48.892;15.312;2024-01-25T13:04:35;4.60;91.60
3648;DHT22;1840;48.892;15.312;2024-01-25T13:07:04;4.50;91.70
3648;DHT22;1840;48.892;15.312;2024-01-25T13:09:32;4.40;92.20
3648;DHT22;1840;48.892;15.312;2024-01-25T13:12:04;4.50;91.90
3648;DHT22;1840;48.892;15.312;2024-01-25T13:14:34;4.40;91.60
3648;DHT22;1840;48.892;15.312;2024-01-25T13:17:04;4.40;92.00
3648;DHT22;1840;48.892;15.312;2024-01-25T13:19:35;4.50;91.70
3648;DHT22;1840;48.892;15.312;2024-01-25T13:22:04;4.40;91.70
3648;DHT22;1840;48.892;15.312;2024-01-25T13:24:33;4.30;91.70
3648;DHT22;1840;48.892;15.312;2024-01-25T13:27:01;4.30;91.70
3648;DHT22;1840;48.892;15.312;2024-01-25T13:29:30;4.40;92.00
3648;DHT22;1840;48.892;15.312;2024-01-25T13:32:00;4.60;91.80
3648;DHT22;1840;48.892;15.312;2024-01-25T13:34:29;4.80;91.50
3648;DHT22;1840;48.892;15.312;2024-01-25T13:36:57;4.80;91.40
3648;DHT22;1840;48.892;15.312;2024-01-25T13:39:32;4.80;91.50
3648;DHT22;1840;48.892;15.312;2024-01-25T13:42:01;4.70;91.30
3648;DHT22;1840;48.892;15.312;2024-01-25T13:44:29;4.60;91.50
3648;DHT22;1840;48.892;15.312;2024-01-25T13:47:00;4.70;91.40
3648;DHT22;1840;48.892;15.312;2024-01-25T13:49:29;4.70;91.50
3648;DHT22;1840;48.892;15.312;2024-01-25T13:52:00;4.80;91.70
3648;DHT22;1840;48.892;15.312;2024-01-25T13:54:30;4.90;91.20
3648;DHT22;1840;48.892;15.312;2024-01-25T13:56:58;4.80;91.40
3648;DHT22;1840;48.892;15.312;2024-01-25T13:59:27;4.80;91.20
3648;DHT22;1840;48.892;15.312;2024-01-25T14:01:55;4.70;91.20
3648;DHT22;1840;48.892;15.312;2024-01-25T14:04:25;4.60;91.40
3648;DHT22;1840;48.892;15.312;2024-01-25T14:06:54;4.60;91.10
3648;DHT22;1840;48.892;15.312;2024-01-25T14:09:23;4.50;91.30
3648;DHT22;1840;48.892;15.312;2024-01-25T14:11:51;4.70;91.20
3648;DHT22;1840;48.892;15.312;2024-01-25T14:14:20;4.40;91.30
3648;DHT22;1840;48.892;15.312;2024-01-25T14:16:48;4.30;91.30
3648;DHT22;1840;48.892;15.312;2024-01-25T14:19:17;4.30;91.40
3648;DHT22;1840;48.892;15.312;2024-01-25T14:21:49;4.40;91.30
3648;DHT22;1840;48.892;15.312;2024-01-25T14:24:20;4.40;91.10
3648;DHT22;1840;48.892;15.312;2024-01-25T14:26:59;4.40;91.00
3648;DHT22;1840;48.892;15.312;2024-01-25T14:29:28;4.60;91.10
3648;DHT22;1840;48.892;15.312;2024-01-25T14:32:00;4.80;91.10
3648;DHT22;1840;48.892;15.312;2024-01-25T14:34:28;4.90;91.10
3648;DHT22;1840;48.892;15.312;2024-01-25T14:37:06;4.60;91.20
3648;DHT22;1840;48.892;15.312;2024-01-25T14:39:36;4.60;91.10
3648;DHT22;1840;48.892;15.312;2024-01-25T14:42:09;4.70;91.30
3648;DHT22;1840;48.892;15.312;2024-01-25T14:44:39;4.50;91.10
3648;DHT22;1840;48.892;15.312;2024-01-25T14:47:08;4.50;91.30
3648;DHT22;1840;48.892;15.312;2024-01-25T14:49:36;4.70;91.30
3648;DHT22;1840;48.892;15.312;2024-01-25T14:52:07;4.70;91.50
3648;DHT22;1840;48.892;15.312;2024-01-25T14:54:35;4.90;91.40
3648;DHT22;1840;48.892;15.312;2024-01-25T14:57:04;4.70;91.50
3648;DHT22;1840;48.892;15.312;2024-01-25T14:59:32;4.30;91.40
3648;DHT22;1840;48.892;15.312;2024-01-25T15:02:01;4.20;91.60
3648;DHT22;1840;48.892;15.312;2024-01-25T15:04:30;4.30;91.60
3648;DHT22;1840;48.892;15.312;2024-01-25T15:06:59;4.20;91.40
3648;DHT22;1840;48.892;15.312;2024-01-25T15:09:29;4.30;91.30
3648;DHT22;1840;48.892;15.312;2024-01-25T15:11:57;4.10;91.10
3648;DHT22;1840;48.892;15.312;2024-01-25T15:14:25;3.90;91.20
3648;DHT22;1840;48.892;15.312;2024-01-25T15:16:54;3.90;91.50
3648;DHT22;1840;48.892;15.312;2024-01-25T15:19:23;3.90;91.40
3648;DHT22;1840;48.892;15.312;2024-01-25T15:21:51;3.90;91.50
3648;DHT22;1840;48.892;15.312;2024-01-25T15:24:20;4.00;91.60
3648;DHT22;1840;48.892;15.312;2024-01-25T15:26:50;3.90;91.60
3648;DHT22;1840;48.892;15.312;2024-01-25T15:29:18;3.80;91.80
3648;DHT22;1840;48.892;15.312;2024-01-25T15:31:47;3.90;91.70
3648;DHT22;1840;48.892;15.312;2024-01-25T15:34:15;3.80;91.90
3648;DHT22;1840;48.892;15.312;2024-01-25T15:36:44;3.70;91.70
3648;DHT22;1840;48.892;15.312;2024-01-25T15:39:12;3.80;91.70
3648;DHT22;1840;48.892;15.312;2024-01-25T15:41:41;3.80;91.50
3648;DHT22;1840;48.892;15.312;2024-01-25T15:44:11;3.60;91.50
3648;DHT22;1840;48.892;15.312;2024-01-25T15:46:40;3.80;91.50
3648;DHT22;1840;48.892;15.312;2024-01-25T15:49:08;3.70;91.60
3648;DHT22;1840;48.892;15.312;2024-01-25T15:51:37;3.80;91.70
3648;DHT22;1840;48.892;15.312;2024-01-25T15:54:06;3.70;91.50
3648;DHT22;1840;48.892;15.312;2024-01-25T15:56:34;3.70;91.50
3648;DHT22;1840;48.892;15.312;2024-01-25T15:59:03;3.70;91.60
3648;DHT22;1840;48.892;15.312;2024-01-25T16:01:33;4.00;91.30
3648;DHT22;1840;48.892;15.312;2024-01-25T16:04:04;4.10;91.40
3648;DHT22;1840;48.892;15.312;2024-01-25T16:06:33;4.10;91.20
3648;DHT22;1840;48.892;15.312;2024-01-25T16:09:03;4.00;91.00
3648;DHT22;1840;48.892;15.312;2024-01-25T16:11:32;4.00;91.20
3648;DHT22;1840;48.892;15.312;2024-01-25T16:14:00;3.70;91.30
3648;DHT22;1840;48.892;15.312;2024-01-25T16:16:29;3.60;91.50